Tybee Island, GA (31328)

11:08 PM EST on March 04, 2015 (GMT -0500)
Tid-Bit | Change Station
CLOSE
Current Station
Personal Weather Station
Location: Tybee Island, GA
Elevation: 10 ft
Nearby Weather Stations
Active Advisory: Flood Warning Active Notice: Record Report

Elev 10 ft 32.01 °N, 80.85 °W | Updated 1 minute ago

Clear
Clear
57.7 °F
Feels Like 57.7 °F
N
1.0
Wind Variable Wind from SW
Gusts 6.0 mph

Today
High -- | Low -- °F
--% Chance of Precip.
Yesterday
High -- | Low -- °F
Precip. -- in
6:47 AM 6:23 PM
Full, 100% visible
Pressure 30.05 in
Visibility 10.0 miles
Clouds Clear
Dew Point 57 °F
Humidity 98%
Rainfall in
Snow Depth Not available.
UV 0 out of 12
Pollen 10.50 out of 12
Air Quality Not available.
Flu Activity Not available.
METAR KHXD 050355Z AUTO 18007G16KT 010V020 10SM CLR 17/16 A3005 RMK AO2 P0000

More Conditions Fewer Conditions

Pressure 30.05 in
Visibility 10.0 miles
Clouds Clear
Dew Point 57 °F
Humidity 98%
Rainfall in
Snow Depth Not available.
UV 0 out of 12
Pollen 10.50 out of 12
Air Quality Not available.
Flu Activity Not available.
METAR KHXD 050355Z AUTO 18007G16KT 010V020 10SM CLR 17/16 A3005 RMK AO2 P0000

More Conditions Fewer Conditions

10-Day Weather Forecast

Almanac

Astronomy

Mar. 04, 2015 Rise Set
Actual Time
Civil Twilight
Nautical Twilight
Astronomical Twilight
Moon
Length of Visible Light
Length of Day
Tomorrow will be .
, % of the Moon is Illuminated

Today's Extremes

State Highs State Lows

Community

WunderPhotos

Upload Photos

1,802,667 photos uploaded!

WunderBlogs® & News

Nearby

Air Quality

  Air Quality AQ Index Pollutant
Not available.

Snow Depth

Station Depth Elevation

Earthquake Activity

City Distance Mag. Time & Date
Minimum magnitude displayed is 2.5.

Coastal Water Temperatures

Place Temperature

Nearby Weather Stations

Flood Warning
Statement as of 10:32 PM EST on March 04, 2015

The Flood Warning continues for
the Ogeechee river near Eden.
* At 10 PM Wednesday the stage was 12.3 feet.
* Flood stage is 11.0 feet.
* Minor flooding is occurring.
* Forecast, the river will rise to near 12.6 feet by early Friday
morning then begin a slow fall.
* At 12.0 feet, water encroaches on some homes along dashers Landing
Road and Yarbrough Landing Road. Davis Landing Road also becomes
impassable.


Lat... Lon 3246 8160 3252 8152 3227 8140 3208 8133
          3206 8143 3223 8150